sensor_id;sensor_type;location;lat;lon;timestamp;pressure;altitude;pressure_sealevel;temperature
67599;BMP280;62026;39.230;9.122;2023-03-17T00:01:50;101459.53;;;13.15
67599;BMP280;62026;39.230;9.122;2023-03-17T00:04:20;101452.44;;;12.95
67599;BMP280;62026;39.230;9.122;2023-03-17T00:06:47;101454.88;;;12.97
67599;BMP280;62026;39.230;9.122;2023-03-17T00:09:15;101452.00;;;12.98
67599;BMP280;62026;39.230;9.122;2023-03-17T00:11:44;101455.06;;;12.95
67599;BMP280;62026;39.230;9.122;2023-03-17T00:14:10;101449.78;;;12.95
67599;BMP280;62026;39.230;9.122;2023-03-17T00:16:47;101448.53;;;12.91
67599;BMP280;62026;39.230;9.122;2023-03-17T00:19:27;101455.88;;;13.02
67599;BMP280;62026;39.230;9.122;2023-03-17T00:21:54;101446.91;;;13.03
67599;BMP280;62026;39.230;9.122;2023-03-17T00:24:20;101449.13;;;12.93
67599;BMP280;62026;39.230;9.122;2023-03-17T00:26:47;101452.22;;;12.97
67599;BMP280;62026;39.230;9.122;2023-03-17T00:29:13;101450.16;;;12.92
67599;BMP280;62026;39.230;9.122;2023-03-17T00:31:43;101454.88;;;12.97
67599;BMP280;62026;39.230;9.122;2023-03-17T00:34:17;101445.66;;;12.99
67599;BMP280;62026;39.230;9.122;2023-03-17T00:36:47;101446.09;;;13.03
67599;BMP280;62026;39.230;9.122;2023-03-17T00:39:15;101446.69;;;12.92
67599;BMP280;62026;39.230;9.122;2023-03-17T00:41:41;101456.09;;;12.94
67599;BMP280;62026;39.230;9.122;2023-03-17T00:44:08;101453.44;;;12.94
67599;BMP280;62026;39.230;9.122;2023-03-17T00:46:36;101438.97;;;12.90
67599;BMP280;62026;39.230;9.122;2023-03-17T00:49:15;101433.44;;;12.85
67599;BMP280;62026;39.230;9.122;2023-03-17T00:51:44;101435.50;;;12.83
67599;BMP280;62026;39.230;9.122;2023-03-17T00:54:11;101444.03;;;12.85
67599;BMP280;62026;39.230;9.122;2023-03-17T00:56:39;101442.66;;;12.89
67599;BMP280;62026;39.230;9.122;2023-03-17T00:59:29;101437.34;;;12.83
67599;BMP280;62026;39.230;9.122;2023-03-17T01:01:58;101427.78;;;12.82
67599;BMP280;62026;39.230;9.122;2023-03-17T01:04:24;101439.38;;;12.81
67599;BMP280;62026;39.230;9.122;2023-03-17T01:06:51;101432.25;;;12.74
67599;BMP280;62026;39.230;9.122;2023-03-17T01:09:19;101427.75;;;12.75
67599;BMP280;62026;39.230;9.122;2023-03-17T01:11:46;101428.19;;;12.72
67599;BMP280;62026;39.230;9.122;2023-03-17T01:14:14;101424.91;;;12.70
67599;BMP280;62026;39.230;9.122;2023-03-17T01:16:40;101413.09;;;12.72
67599;BMP280;62026;39.230;9.122;2023-03-17T01:19:08;101417.97;;;12.69
67599;BMP280;62026;39.230;9.122;2023-03-17T01:21:34;101413.72;;;12.68
67599;BMP280;62026;39.230;9.122;2023-03-17T01:24:01;101406.97;;;12.65
67599;BMP280;62026;39.230;9.122;2023-03-17T01:26:27;101401.28;;;12.62
67599;BMP280;62026;39.230;9.122;2023-03-17T01:28:53;101399.25;;;12.64
67599;BMP280;62026;39.230;9.122;2023-03-17T01:31:19;101404.53;;;12.64
67599;BMP280;62026;39.230;9.122;2023-03-17T01:33:45;101399.03;;;12.65
67599;BMP280;62026;39.230;9.122;2023-03-17T01:36:12;101393.94;;;12.64
67599;BMP280;62026;39.230;9.122;2023-03-17T01:38:38;101395.56;;;12.58
67599;BMP280;62026;39.230;9.122;2023-03-17T01:41:04;101387.41;;;12.53
67599;BMP280;62026;39.230;9.122;2023-03-17T01:43:30;101386.22;;;12.56
67599;BMP280;62026;39.230;9.122;2023-03-17T01:49:30;101387.81;;;12.50
67599;BMP280;62026;39.230;9.122;2023-03-17T01:52:04;101391.69;;;12.48
67599;BMP280;62026;39.230;9.122;2023-03-17T01:57:35;101381.31;;;12.46
67599;BMP280;62026;39.230;9.122;2023-03-17T02:00:08;101384.16;;;12.45
67599;BMP280;62026;39.230;9.122;2023-03-17T02:02:45;101374.38;;;12.38
67599;BMP280;62026;39.230;9.122;2023-03-17T02:05:15;101380.13;;;12.42
67599;BMP280;62026;39.230;9.122;2023-03-17T02:07:43;101376.66;;;12.42
67599;BMP280;62026;39.230;9.122;2023-03-17T02:10:12;101379.28;;;12.35
67599;BMP280;62026;39.230;9.122;2023-03-17T02:12:42;101375.59;;;12.36
67599;BMP280;62026;39.230;9.122;2023-03-17T02:15:11;101372.53;;;12.32
67599;BMP280;62026;39.230;9.122;2023-03-17T02:17:37;101381.50;;;12.31
67599;BMP280;62026;39.230;9.122;2023-03-17T02:22:49;101363.97;;;12.11
67599;BMP280;62026;39.230;9.122;2023-03-17T02:25:17;101369.91;;;12.13
67599;BMP280;62026;39.230;9.122;2023-03-17T02:27:48;101373.56;;;12.12
67599;BMP280;62026;39.230;9.122;2023-03-17T02:30:22;101363.34;;;12.08
67599;BMP280;62026;39.230;9.122;2023-03-17T02:32:48;101362.53;;;12.08
67599;BMP280;62026;39.230;9.122;2023-03-17T02:35:16;101354.00;;;12.13
67599;BMP280;62026;39.230;9.122;2023-03-17T02:37:42;101352.38;;;12.12
67599;BMP280;62026;39.230;9.122;2023-03-17T02:40:13;101357.22;;;12.08
67599;BMP280;62026;39.230;9.122;2023-03-17T02:42:40;101359.28;;;12.06
67599;BMP280;62026;39.230;9.122;2023-03-17T02:45:09;101360.50;;;12.03
67599;BMP280;62026;39.230;9.122;2023-03-17T02:47:37;101350.53;;;12.05
67599;BMP280;62026;39.230;9.122;2023-03-17T02:50:05;101358.88;;;12.09
67599;BMP280;62026;39.230;9.122;2023-03-17T02:52:32;101356.03;;;12.04
67599;BMP280;62026;39.230;9.122;2023-03-17T02:54:58;101357.22;;;12.08
67599;BMP280;62026;39.230;9.122;2023-03-17T02:57:24;101358.47;;;12.05
67599;BMP280;62026;39.230;9.122;2023-03-17T02:59:51;101374.09;;;12.00
67599;BMP280;62026;39.230;9.122;2023-03-17T03:02:17;101353.56;;;11.96
67599;BMP280;62026;39.230;9.122;2023-03-17T03:04:43;101361.50;;;11.96
67599;BMP280;62026;39.230;9.122;2023-03-17T03:07:10;101366.59;;;11.97
67599;BMP280;62026;39.230;9.122;2023-03-17T03:09:37;101371.69;;;11.99
67599;BMP280;62026;39.230;9.122;2023-03-17T03:12:04;101370.88;;;11.98
67599;BMP280;62026;39.230;9.122;2023-03-17T03:14:30;101373.09;;;11.95
67599;BMP280;62026;39.230;9.122;2023-03-17T03:16:57;101369.84;;;11.93
67599;BMP280;62026;39.230;9.122;2023-03-17T03:19:23;101367.19;;;11.93
67599;BMP280;62026;39.230;9.122;2023-03-17T03:21:49;101370.25;;;11.90
67599;BMP280;62026;39.230;9.122;2023-03-17T03:24:15;101364.16;;;11.96
67599;BMP280;62026;39.230;9.122;2023-03-17T03:26:41;101358.44;;;11.92
67599;BMP280;62026;39.230;9.122;2023-03-17T03:29:07;101361.28;;;11.91
67599;BMP280;62026;39.230;9.122;2023-03-17T03:31:33;101367.41;;;11.98
67599;BMP280;62026;39.230;9.122;2023-03-17T03:33:59;101352.94;;;11.94
67599;BMP280;62026;39.230;9.122;2023-03-17T03:36:26;101359.88;;;11.88
67599;BMP280;62026;39.230;9.122;2023-03-17T03:38:52;101367.38;;;11.85
67599;BMP280;62026;39.230;9.122;2023-03-17T03:41:18;101362.50;;;11.88
67599;BMP280;62026;39.230;9.122;2023-03-17T03:43:44;101356.81;;;11.85
67599;BMP280;62026;39.230;9.122;2023-03-17T03:46:10;101353.16;;;11.86
67599;BMP280;62026;39.230;9.122;2023-03-17T03:48:36;101367.59;;;11.90
67599;BMP280;62026;39.230;9.122;2023-03-17T03:51:03;101358.66;;;11.91
67599;BMP280;62026;39.230;9.122;2023-03-17T03:53:29;101362.50;;;11.82
67599;BMP280;62026;39.230;9.122;2023-03-17T03:55:55;101358.44;;;11.86
67599;BMP280;62026;39.230;9.122;2023-03-17T03:58:22;101360.84;;;11.81
67599;BMP280;62026;39.230;9.122;2023-03-17T04:00:48;101358.84;;;11.83
67599;BMP280;62026;39.230;9.122;2023-03-17T04:03:15;101367.38;;;11.85
67599;BMP280;62026;39.230;9.122;2023-03-17T04:05:41;101365.72;;;11.77
67599;BMP280;62026;39.230;9.122;2023-03-17T04:08:07;101361.25;;;11.78
67599;BMP280;62026;39.230;9.122;2023-03-17T04:10:33;101366.38;;;11.86
67599;BMP280;62026;39.230;9.122;2023-03-17T04:12:59;101371.84;;;11.84
67599;BMP280;62026;39.230;9.122;2023-03-17T04:15:26;101363.09;;;11.84
67599;BMP280;62026;39.230;9.122;2023-03-17T04:17:52;101355.38;;;11.89
67599;BMP280;62026;39.230;9.122;2023-03-17T04:20:20;101364.16;;;11.96
67599;BMP280;62026;39.230;9.122;2023-03-17T04:22:46;101362.09;;;11.91
67599;BMP280;62026;39.230;9.122;2023-03-17T04:25:14;101364.13;;;11.83
67599;BMP280;62026;39.230;9.122;2023-03-17T04:27:41;101353.94;;;11.86
67599;BMP280;62026;39.230;9.122;2023-03-17T04:30:10;101360.28;;;11.98
67599;BMP280;62026;39.230;9.122;2023-03-17T04:32:39;101361.69;;;11.88
67599;BMP280;62026;39.230;9.122;2023-03-17T04:35:06;101351.91;;;11.82
67599;BMP280;62026;39.230;9.122;2023-03-17T04:37:35;101359.66;;;11.90
67599;BMP280;62026;39.230;9.122;2023-03-17T04:40:02;101359.44;;;11.85
67599;BMP280;62026;39.230;9.122;2023-03-17T04:42:29;101354.97;;;11.85
67599;BMP280;62026;39.230;9.122;2023-03-17T04:44:56;101359.66;;;11.90
67599;BMP280;62026;39.230;9.122;2023-03-17T04:47:22;101360.88;;;11.87
67599;BMP280;62026;39.230;9.122;2023-03-17T04:49:48;101364.56;;;11.93
67599;BMP280;62026;39.230;9.122;2023-03-17T04:52:14;101360.47;;;11.90
67599;BMP280;62026;39.230;9.122;2023-03-17T04:54:39;101349.47;;;11.93
67599;BMP280;62026;39.230;9.122;2023-03-17T04:57:07;101353.19;;;11.99
67599;BMP280;62026;39.230;9.122;2023-03-17T04:59:33;101365.38;;;12.00
67599;BMP280;62026;39.230;9.122;2023-03-17T05:01:59;101356.81;;;11.91
67599;BMP280;62026;39.230;9.122;2023-03-17T05:04:27;101359.28;;;11.99
67599;BMP280;62026;39.230;9.122;2023-03-17T05:06:53;101350.28;;;12.00
67599;BMP280;62026;39.230;9.122;2023-03-17T05:09:18;101357.06;;;12.03
67599;BMP280;62026;39.230;9.122;2023-03-17T05:11:44;101375.97;;;12.06
67599;BMP280;62026;39.230;9.122;2023-03-17T05:14:10;101359.69;;;12.03
67599;BMP280;62026;39.230;9.122;2023-03-17T05:16:36;101349.72;;;12.05
67599;BMP280;62026;39.230;9.122;2023-03-17T05:19:02;101357.66;;;12.05
67599;BMP280;62026;39.230;9.122;2023-03-17T05:21:28;101360.94;;;12.07
67599;BMP280;62026;39.230;9.122;2023-03-17T05:23:54;101357.66;;;12.05
67599;BMP280;62026;39.230;9.122;2023-03-17T05:26:20;101355.03;;;12.05
67599;BMP280;62026;39.230;9.122;2023-03-17T05:28:46;101367.44;;;12.04
67599;BMP280;62026;39.230;9.122;2023-03-17T05:31:13;101359.28;;;12.06
67599;BMP280;62026;39.230;9.122;2023-03-17T05:33:39;101353.38;;;12.04
67599;BMP280;62026;39.230;9.122;2023-03-17T05:36:05;101365.16;;;12.01
67599;BMP280;62026;39.230;9.122;2023-03-17T05:38:31;101363.75;;;11.99
67599;BMP280;62026;39.230;9.122;2023-03-17T05:40:57;101369.88;;;11.99
67599;BMP280;62026;39.230;9.122;2023-03-17T05:43:23;101361.09;;;11.99
67599;BMP280;62026;39.230;9.122;2023-03-17T05:45:49;101366.59;;;11.97
67599;BMP280;62026;39.230;9.122;2023-03-17T05:48:15;101371.06;;;11.97
67599;BMP280;62026;39.230;9.122;2023-03-17T05:50:42;101378.00;;;11.98
67599;BMP280;62026;39.230;9.122;2023-03-17T05:53:09;101373.09;;;12.01
67599;BMP280;62026;39.230;9.122;2023-03-17T05:55:35;101362.53;;;12.08
67599;BMP280;62026;39.230;9.122;2023-03-17T05:58:01;101363.34;;;12.15
67599;BMP280;62026;39.230;9.122;2023-03-17T06:00:29;101374.19;;;12.20
67599;BMP280;62026;39.230;9.122;2023-03-17T06:02:56;101366.81;;;12.22
67599;BMP280;62026;39.230;9.122;2023-03-17T06:05:22;101363.81;;;12.25
67599;BMP280;62026;39.230;9.122;2023-03-17T06:07:48;101359.31;;;12.26
67599;BMP280;62026;39.230;9.122;2023-03-17T06:10:14;101373.19;;;12.34
67599;BMP280;62026;39.230;9.122;2023-03-17T06:12:40;101371.94;;;12.37
67599;BMP280;62026;39.230;9.122;2023-03-17T06:15:07;101366.88;;;12.42
67599;BMP280;62026;39.230;9.122;2023-03-17T06:17:35;101361.34;;;12.50
67599;BMP280;62026;39.230;9.122;2023-03-17T06:20:03;101369.28;;;12.57
67599;BMP280;62026;39.230;9.122;2023-03-17T06:22:30;101367.25;;;12.65
67599;BMP280;62026;39.230;9.122;2023-03-17T06:24:56;101378.44;;;12.81
67599;BMP280;62026;39.230;9.122;2023-03-17T06:27:22;101380.47;;;12.85
67599;BMP280;62026;39.230;9.122;2023-03-17T06:29:48;101379.25;;;12.94
67599;BMP280;62026;39.230;9.122;2023-03-17T06:32:14;101367.59;;;13.08
67599;BMP280;62026;39.230;9.122;2023-03-17T06:34:40;101376.34;;;13.16
67599;BMP280;62026;39.230;9.122;2023-03-17T06:37:08;101385.47;;;13.33
67599;BMP280;62026;39.230;9.122;2023-03-17T06:39:35;101378.31;;;13.40
67599;BMP280;62026;39.230;9.122;2023-03-17T06:42:03;101371.28;;;13.59
67599;BMP280;62026;39.230;9.122;2023-03-17T06:44:29;101381.44;;;13.68
67599;BMP280;62026;39.230;9.122;2023-03-17T06:46:55;101380.38;;;13.69
67599;BMP280;62026;39.230;9.122;2023-03-17T06:49:21;101384.75;;;13.95
67599;BMP280;62026;39.230;9.122;2023-03-17T06:51:47;101389.41;;;14.00
67599;BMP280;62026;39.230;9.122;2023-03-17T06:54:13;101381.25;;;13.95
67599;BMP280;62026;39.230;9.122;2023-03-17T06:56:39;101391.13;;;14.13
67599;BMP280;62026;39.230;9.122;2023-03-17T06:59:05;101390.06;;;14.20
67599;BMP280;62026;39.230;9.122;2023-03-17T07:01:31;101389.66;;;14.23
67599;BMP280;62026;39.230;9.122;2023-03-17T07:03:57;101388.78;;;14.54
67599;BMP280;62026;39.230;9.122;2023-03-17T07:06:23;101389.66;;;14.66
67599;BMP280;62026;39.230;9.122;2023-03-17T07:08:49;101383.88;;;14.76
67599;BMP280;62026;39.230;9.122;2023-03-17T07:11:15;101393.50;;;14.95
67599;BMP280;62026;39.230;9.122;2023-03-17T07:13:41;101397.34;;;15.18
67599;BMP280;62026;39.230;9.122;2023-03-17T07:16:09;101381.69;;;15.09
67599;BMP280;62026;39.230;9.122;2023-03-17T07:18:36;101390.25;;;15.12
67599;BMP280;62026;39.230;9.122;2023-03-17T07:21:04;101391.59;;;15.51
67599;BMP280;62026;39.230;9.122;2023-03-17T07:23:30;101389.69;;;15.69
67599;BMP280;62026;39.230;9.122;2023-03-17T07:25:56;101391.91;;;15.72
67599;BMP280;62026;39.230;9.122;2023-03-17T07:28:23;101400.03;;;15.77
67599;BMP280;62026;39.230;9.122;2023-03-17T07:30:49;101391.84;;;15.91
67599;BMP280;62026;39.230;9.122;2023-03-17T07:33:17;101394.44;;;16.09
67599;BMP280;62026;39.230;9.122;2023-03-17T07:35:47;101403.88;;;16.23
67599;BMP280;62026;39.230;9.122;2023-03-17T07:38:16;101398.78;;;15.92
67599;BMP280;62026;39.230;9.122;2023-03-17T07:40:47;101399.31;;;16.12
67599;BMP280;62026;39.230;9.122;2023-03-17T07:43:15;101405.44;;;16.36
67599;BMP280;62026;39.230;9.122;2023-03-17T07:45:44;101411.75;;;16.53
67599;BMP280;62026;39.230;9.122;2023-03-17T07:48:11;101403.56;;;16.83
67599;BMP280;62026;39.230;9.122;2023-03-17T07:50:38;101411.41;;;16.49
67599;BMP280;62026;39.230;9.122;2023-03-17T07:53:04;101410.22;;;16.45
67599;BMP280;62026;39.230;9.122;2023-03-17T07:55:31;101406.38;;;16.76
67599;BMP280;62026;39.230;9.122;2023-03-17T07:57:58;101410.78;;;16.71
67599;BMP280;62026;39.230;9.122;2023-03-17T08:00:24;101407.19;;;17.00
67599;BMP280;62026;39.230;9.122;2023-03-17T08:02:52;101410.00;;;17.22
67599;BMP280;62026;39.230;9.122;2023-03-17T08:05:18;101417.31;;;17.27
67599;BMP280;62026;39.230;9.122;2023-03-17T08:07:44;101408.94;;;16.71
67599;BMP280;62026;39.230;9.122;2023-03-17T08:10:11;101408.88;;;17.06
67599;BMP280;62026;39.230;9.122;2023-03-17T08:12:40;101415.59;;;16.97
67599;BMP280;62026;39.230;9.122;2023-03-17T08:15:08;101402.16;;;17.15
67599;BMP280;62026;39.230;9.122;2023-03-17T08:17:34;101420.88;;;17.32
67599;BMP280;62026;39.230;9.122;2023-03-17T08:20:01;101407.34;;;17.67
67599;BMP280;62026;39.230;9.122;2023-03-17T08:22:30;101402.81;;;17.51
67599;BMP280;62026;39.230;9.122;2023-03-17T08:24:56;101404.28;;;17.59
67599;BMP280;62026;39.230;9.122;2023-03-17T08:27:23;101413.78;;;17.38
67599;BMP280;62026;39.230;9.122;2023-03-17T08:29:49;101411.75;;;17.73
67599;BMP280;62026;39.230;9.122;2023-03-17T08:32:16;101403.97;;;17.72
67599;BMP280;62026;39.230;9.122;2023-03-17T08:34:43;101411.22;;;18.05
67599;BMP280;62026;39.230;9.122;2023-03-17T08:37:09;101418.09;;;17.84
67599;BMP280;62026;39.230;9.122;2023-03-17T08:39:35;101410.06;;;18.01
67599;BMP280;62026;39.230;9.122;2023-03-17T08:42:03;101409.00;;;17.68
67599;BMP280;62026;39.230;9.122;2023-03-17T08:44:29;101407.25;;;18.07
67599;BMP280;62026;39.230;9.122;2023-03-17T08:46:55;101404.44;;;18.52
67599;BMP280;62026;39.230;9.122;2023-03-17T08:49:26;101410.00;;;18.68
67599;BMP280;62026;39.230;9.122;2023-03-17T08:51:53;101416.88;;;18.63
67599;BMP280;62026;39.230;9.122;2023-03-17T08:54:19;101401.13;;;18.84
67599;BMP280;62026;39.230;9.122;2023-03-17T08:56:45;101405.94;;;18.87
67599;BMP280;62026;39.230;9.122;2023-03-17T08:59:11;101410.59;;;18.96
67599;BMP280;62026;39.230;9.122;2023-03-17T09:01:37;101402.09;;;18.56
67599;BMP280;62026;39.230;9.122;2023-03-17T09:04:04;101407.81;;;18.64
67599;BMP280;62026;39.230;9.122;2023-03-17T09:06:31;101403.66;;;18.52
67599;BMP280;62026;39.230;9.122;2023-03-17T09:08:57;101411.53;;;18.63
67599;BMP280;62026;39.230;9.122;2023-03-17T09:11:27;101405.88;;;19.04
67599;BMP280;62026;39.230;9.122;2023-03-17T09:13:54;101400.78;;;19.02
67599;BMP280;62026;39.230;9.122;2023-03-17T09:16:21;101404.69;;;19.16
67599;BMP280;62026;39.230;9.122;2023-03-17T09:18:51;101405.69;;;19.10
67599;BMP280;62026;39.230;9.122;2023-03-17T09:21:17;101396.28;;;19.29
67599;BMP280;62026;39.230;9.122;2023-03-17T09:23:43;101391.81;;;19.13
67599;BMP280;62026;39.230;9.122;2023-03-17T09:26:10;101400.47;;;19.20
67599;BMP280;62026;39.230;9.122;2023-03-17T09:28:37;101388.25;;;19.29
67599;BMP280;62026;39.230;9.122;2023-03-17T09:31:06;101387.09;;;19.52
67599;BMP280;62026;39.230;9.122;2023-03-17T09:33:39;101387.81;;;19.43
67599;BMP280;62026;39.230;9.122;2023-03-17T09:36:10;101387.22;;;19.35
67599;BMP280;62026;39.230;9.122;2023-03-17T09:38:37;101386.59;;;19.55
67599;BMP280;62026;39.230;9.122;2023-03-17T09:52:24;101395.75;;;18.84
67599;BMP280;62026;39.230;9.122;2023-03-17T09:54:53;101383.94;;;18.80
67599;BMP280;62026;39.230;9.122;2023-03-17T09:57:39;101382.78;;;18.32
67599;BMP280;62026;39.230;9.122;2023-03-17T10:00:24;101379.50;;;18.47
67599;BMP280;62026;39.230;9.122;2023-03-17T10:02:57;101377.41;;;18.32
67599;BMP280;62026;39.230;9.122;2023-03-17T10:05:33;101378.25;;;18.16
67599;BMP280;62026;39.230;9.122;2023-03-17T10:08:25;101374.94;;;17.92
67599;BMP280;62026;39.230;9.122;2023-03-17T10:14:10;101379.22;;;18.10
67599;BMP280;62026;39.230;9.122;2023-03-17T10:16:51;101379.06;;;17.83
67599;BMP280;62026;39.230;9.122;2023-03-17T10:19:36;101380.69;;;18.01
67599;BMP280;62026;39.230;9.122;2023-03-17T10:24:48;101368.06;;;17.79
67599;BMP280;62026;39.230;9.122;2023-03-17T10:27:16;101357.91;;;17.81
67599;BMP280;62026;39.230;9.122;2023-03-17T10:29:42;101378.09;;;17.89
67599;BMP280;62026;39.230;9.122;2023-03-17T10:32:12;101357.94;;;17.65
67599;BMP280;62026;39.230;9.122;2023-03-17T10:34:40;101364.28;;;17.47
67599;BMP280;62026;39.230;9.122;2023-03-17T10:37:19;101348.13;;;17.53
67599;BMP280;62026;39.230;9.122;2023-03-17T10:39:51;101361.50;;;17.70
67599;BMP280;62026;39.230;9.122;2023-03-17T10:42:31;101374.69;;;17.60
67599;BMP280;62026;39.230;9.122;2023-03-17T10:45:29;101352.72;;;17.41
67599;BMP280;62026;39.230;9.122;2023-03-17T10:47:58;101360.50;;;17.14
67599;BMP280;62026;39.230;9.122;2023-03-17T10:50:27;101364.19;;;17.13
67599;BMP280;62026;39.230;9.122;2023-03-17T10:55:51;101370.22;;;16.80
67599;BMP280;62026;39.230;9.122;2023-03-17T11:03:40;101370.06;;;16.87
67599;BMP280;62026;39.230;9.122;2023-03-17T11:06:32;101358.53;;;16.70
67599;BMP280;62026;39.230;9.122;2023-03-17T11:09:07;101368.75;;;16.49
67599;BMP280;62026;39.230;9.122;2023-03-17T11:11:45;101358.44;;;16.53
67599;BMP280;62026;39.230;9.122;2023-03-17T11:14:13;101336.88;;;16.43
67599;BMP280;62026;39.230;9.122;2023-03-17T11:22:10;101338.63;;;16.37
67599;BMP280;62026;39.230;9.122;2023-03-17T11:25:09;101349.50;;;16.36
67599;BMP280;62026;39.230;9.122;2023-03-17T11:27:52;101343.94;;;16.37
67599;BMP280;62026;39.230;9.122;2023-03-17T11:32:54;101334.94;;;16.15
67599;BMP280;62026;39.230;9.122;2023-03-17T11:38:21;101327.50;;;15.94
67599;BMP280;62026;39.230;9.122;2023-03-17T11:49:20;101346.00;;;15.89
67599;BMP280;62026;39.230;9.122;2023-03-17T11:52:03;101328.97;;;15.78
67599;BMP280;62026;39.230;9.122;2023-03-17T11:54:58;101331.38;;;15.91
67599;BMP280;62026;39.230;9.122;2023-03-17T11:58:04;101326.22;;;15.85
67599;BMP280;62026;39.230;9.122;2023-03-17T12:00:46;101329.31;;;15.82
67599;BMP280;62026;39.230;9.122;2023-03-17T12:03:27;101320.28;;;15.83
67599;BMP280;62026;39.230;9.122;2023-03-17T12:06:05;101315.06;;;15.76
67599;BMP280;62026;39.230;9.122;2023-03-17T12:08:42;101308.59;;;15.72
67599;BMP280;62026;39.230;9.122;2023-03-17T12:11:21;101313.00;;;15.78
67599;BMP280;62026;39.230;9.122;2023-03-17T12:14:30;101303.84;;;15.74
67599;BMP280;62026;39.230;9.122;2023-03-17T12:17:24;101317.25;;;15.67
67599;BMP280;62026;39.230;9.122;2023-03-17T12:22:58;101292.25;;;15.68
67599;BMP280;62026;39.230;9.122;2023-03-17T12:25:50;101282.56;;;15.62
67599;BMP280;62026;39.230;9.122;2023-03-17T12:28:29;101275.00;;;15.59
67599;BMP280;62026;39.230;9.122;2023-03-17T12:34:07;101279.28;;;15.60
67599;BMP280;62026;39.230;9.122;2023-03-17T12:36:35;101293.16;;;15.51
67599;BMP280;62026;39.230;9.122;2023-03-17T12:39:11;101279.47;;;15.47
67599;BMP280;62026;39.230;9.122;2023-03-17T12:53:36;101274.22;;;15.29
67599;BMP280;62026;39.230;9.122;2023-03-17T12:56:26;101262.09;;;15.33
67599;BMP280;62026;39.230;9.122;2023-03-17T12:59:23;101263.63;;;15.40
67599;BMP280;62026;39.230;9.122;2023-03-17T13:04:57;101251.28;;;15.46
67599;BMP280;62026;39.230;9.122;2023-03-17T13:07:54;101271.28;;;15.49
67599;BMP280;62026;39.230;9.122;2023-03-17T13:10:42;101249.28;;;15.41
67599;BMP280;62026;39.230;9.122;2023-03-17T13:16:41;101243.59;;;15.38
67599;BMP280;62026;39.230;9.122;2023-03-17T13:21:37;101262.84;;;15.40
67599;BMP280;62026;39.230;9.122;2023-03-17T13:26:57;101249.63;;;15.45
67599;BMP280;62026;39.230;9.122;2023-03-17T13:29:41;101251.00;;;15.24
67599;BMP280;62026;39.230;9.122;2023-03-17T13:35:17;101239.78;;;15.34
67599;BMP280;62026;39.230;9.122;2023-03-17T13:41:14;101238.84;;;15.28
67599;BMP280;62026;39.230;9.122;2023-03-17T13:44:23;101240.81;;;15.33
67599;BMP280;62026;39.230;9.122;2023-03-17T13:49:50;101241.72;;;15.27
67599;BMP280;62026;39.230;9.122;2023-03-17T13:52:32;101234.53;;;15.16
67599;BMP280;62026;39.230;9.122;2023-03-17T14:01:03;101240.09;;;15.26
67599;BMP280;62026;39.230;9.122;2023-03-17T14:03:46;101220.41;;;15.15
67599;BMP280;62026;39.230;9.122;2023-03-17T14:06:14;101244.34;;;15.15
67599;BMP280;62026;39.230;9.122;2023-03-17T14:08:47;101221.81;;;15.18
67599;BMP280;62026;39.230;9.122;2023-03-17T14:11:34;101222.53;;;15.25
67599;BMP280;62026;39.230;9.122;2023-03-17T14:17:27;101232.72;;;15.28
67599;BMP280;62026;39.230;9.122;2023-03-17T14:20:06;101223.53;;;15.12
67599;BMP280;62026;39.230;9.122;2023-03-17T14:22:47;101221.25;;;15.27
67599;BMP280;62026;39.230;9.122;2023-03-17T14:25:21;101223.69;;;15.29
67599;BMP280;62026;39.230;9.122;2023-03-17T14:27:52;101209.81;;;15.27
67599;BMP280;62026;39.230;9.122;2023-03-17T14:30:28;101215.84;;;15.34
67599;BMP280;62026;39.230;9.122;2023-03-17T14:35:37;101216.75;;;15.28
67599;BMP280;62026;39.230;9.122;2023-03-17T14:38:33;101215.84;;;15.34
67599;BMP280;62026;39.230;9.122;2023-03-17T14:41:04;101208.91;;;15.33
67599;BMP280;62026;39.230;9.122;2023-03-17T14:43:32;101201.97;;;15.32
67599;BMP280;62026;39.230;9.122;2023-03-17T14:46:06;101202.88;;;15.37
67599;BMP280;62026;39.230;9.122;2023-03-17T14:48:40;101220.34;;;15.33
67599;BMP280;62026;39.230;9.122;2023-03-17T14:51:35;101217.31;;;15.18
67599;BMP280;62026;39.230;9.122;2023-03-17T14:54:09;101208.94;;;15.15
67599;BMP280;62026;39.230;9.122;2023-03-17T14:56:40;101215.72;;;15.29
67599;BMP280;62026;39.230;9.122;2023-03-17T15:01:57;101202.41;;;15.29
67599;BMP280;62026;39.230;9.122;2023-03-17T15:04:30;101214.31;;;15.26
67599;BMP280;62026;39.230;9.122;2023-03-17T15:07:05;101213.97;;;15.23
67599;BMP280;62026;39.230;9.122;2023-03-17T15:09:38;101199.16;;;15.27
67599;BMP280;62026;39.230;9.122;2023-03-17T15:12:16;101223.25;;;15.32
67599;BMP280;62026;39.230;9.122;2023-03-17T15:14:45;101214.22;;;15.33
67599;BMP280;62026;39.230;9.122;2023-03-17T15:17:32;101227.97;;;15.30
67599;BMP280;62026;39.230;9.122;2023-03-17T15:20:15;101220.78;;;15.19
67599;BMP280;62026;39.230;9.122;2023-03-17T15:23:04;101228.78;;;15.19
67599;BMP280;62026;39.230;9.122;2023-03-17T15:25:43;101217.97;;;15.14
67599;BMP280;62026;39.230;9.122;2023-03-17T15:28:19;101226.66;;;15.09
67599;BMP280;62026;39.230;9.122;2023-03-17T15:30:48;101226.16;;;15.00
67599;BMP280;62026;39.230;9.122;2023-03-17T15:33:38;101211.28;;;15.11
67599;BMP280;62026;39.230;9.122;2023-03-17T15:36:04;101208.16;;;15.14
67599;BMP280;62026;39.230;9.122;2023-03-17T15:38:31;101206.88;;;15.05
67599;BMP280;62026;39.230;9.122;2023-03-17T15:40:58;101206.50;;;15.01
67599;BMP280;62026;39.230;9.122;2023-03-17T15:43:24;101205.00;;;15.05
67599;BMP280;62026;39.230;9.122;2023-03-17T15:46:05;101211.38;;;15.04
67599;BMP280;62026;39.230;9.122;2023-03-17T15:48:34;101227.47;;;14.91
67599;BMP280;62026;39.230;9.122;2023-03-17T15:51:04;101220.94;;;14.94
67599;BMP280;62026;39.230;9.122;2023-03-17T15:53:31;101212.25;;;14.98
67599;BMP280;62026;39.230;9.122;2023-03-17T15:55:57;101215.69;;;14.87
67599;BMP280;62026;39.230;9.122;2023-03-17T15:58:23;101225.84;;;14.90
67599;BMP280;62026;39.230;9.122;2023-03-17T16:00:56;101217.19;;;14.83
67599;BMP280;62026;39.230;9.122;2023-03-17T16:03:31;101219.84;;;14.83